sensor_id;sensor_type;location;lat;lon;timestamp;P1;durP1;ratioP1;P2;durP2;ratioP2
9260;SDS011;4667;42.726;23.252;2023-06-04T07:22:46;4.25;;;2.95;;
9260;SDS011;4667;42.726;23.252;2023-06-04T07:25:13;4.43;;;3.45;;
9260;SDS011;4667;42.726;23.252;2023-06-04T07:27:42;4.43;;;3.42;;
9260;SDS011;4667;42.726;23.252;2023-06-04T07:30:10;4.05;;;3.63;;
9260;SDS011;4667;42.726;23.252;2023-06-04T07:32:37;6.20;;;3.60;;
9260;SDS011;4667;42.726;23.252;2023-06-04T07:35:13;7.05;;;3.28;;
9260;SDS011;4667;42.726;23.252;2023-06-04T07:37:41;6.07;;;3.95;;
9260;SDS011;4667;42.726;23.252;2023-06-04T07:40:14;5.90;;;4.10;;
9260;SDS011;4667;42.726;23.252;2023-06-04T07:42:41;4.97;;;3.75;;
9260;SDS011;4667;42.726;23.252;2023-06-04T07:45:09;6.75;;;4.50;;
9260;SDS011;4667;42.726;23.252;2023-06-04T07:47:36;5.13;;;3.90;;
9260;SDS011;4667;42.726;23.252;2023-06-04T07:50:04;6.25;;;3.88;;
9260;SDS011;4667;42.726;23.252;2023-06-04T07:52:32;4.90;;;3.63;;
9260;SDS011;4667;42.726;23.252;2023-06-04T07:55:00;7.15;;;3.90;;
9260;SDS011;4667;42.726;23.252;2023-06-04T07:57:30;5.18;;;3.70;;
9260;SDS011;4667;42.726;23.252;2023-06-04T07:59:58;4.63;;;3.55;;
9260;SDS011;4667;42.726;23.252;2023-06-04T08:02:29;8.18;;;4.28;;
9260;SDS011;4667;42.726;23.252;2023-06-04T08:04:56;8.23;;;4.28;;
9260;SDS011;4667;42.726;23.252;2023-06-04T08:07:24;4.55;;;3.85;;
9260;SDS011;4667;42.726;23.252;2023-06-04T08:09:51;8.43;;;4.03;;
9260;SDS011;4667;42.726;23.252;2023-06-04T08:12:18;5.18;;;3.50;;
9260;SDS011;4667;42.726;23.252;2023-06-04T08:15:01;6.60;;;3.83;;
9260;SDS011;4667;42.726;23.252;2023-06-04T08:17:28;4.60;;;3.50;;
9260;SDS011;4667;42.726;23.252;2023-06-04T08:19:55;6.15;;;4.43;;
9260;SDS011;4667;42.726;23.252;2023-06-04T08:22:23;11.55;;;4.78;;
9260;SDS011;4667;42.726;23.252;2023-06-04T08:25:00;5.45;;;3.88;;
9260;SDS011;4667;42.726;23.252;2023-06-04T08:27:27;5.85;;;4.60;;
9260;SDS011;4667;42.726;23.252;2023-06-04T08:29:54;5.60;;;4.65;;
9260;SDS011;4667;42.726;23.252;2023-06-04T08:32:23;6.38;;;4.35;;
9260;SDS011;4667;42.726;23.252;2023-06-04T08:34:50;6.50;;;4.13;;
9260;SDS011;4667;42.726;23.252;2023-06-04T08:37:18;5.93;;;4.75;;
9260;SDS011;4667;42.726;23.252;2023-06-04T08:39:45;11.00;;;6.05;;
9260;SDS011;4667;42.726;23.252;2023-06-04T08:42:14;8.70;;;5.95;;
9260;SDS011;4667;42.726;23.252;2023-06-04T08:44:46;9.23;;;6.38;;
9260;SDS011;4667;42.726;23.252;2023-06-04T08:47:17;6.60;;;5.10;;
9260;SDS011;4667;42.726;23.252;2023-06-04T08:50:00;10.75;;;5.63;;
9260;SDS011;4667;42.726;23.252;2023-06-04T08:52:36;7.47;;;5.57;;
9260;SDS011;4667;42.726;23.252;2023-06-04T08:55:28;9.95;;;5.40;;
9260;SDS011;4667;42.726;23.252;2023-06-04T08:57:59;10.73;;;4.80;;
9260;SDS011;4667;42.726;23.252;2023-06-04T09:00:43;7.15;;;4.85;;
9260;SDS011;4667;42.726;23.252;2023-06-04T09:03:26;6.80;;;4.90;;
9260;SDS011;4667;42.726;23.252;2023-06-04T09:06:05;7.90;;;5.28;;
9260;SDS011;4667;42.726;23.252;2023-06-04T09:08:34;11.18;;;5.32;;
9260;SDS011;4667;42.726;23.252;2023-06-04T09:11:05;6.50;;;4.68;;
9260;SDS011;4667;42.726;23.252;2023-06-04T09:13:37;9.00;;;5.68;;
9260;SDS011;4667;42.726;23.252;2023-06-04T09:16:07;11.32;;;5.43;;
9260;SDS011;4667;42.726;23.252;2023-06-04T09:18:39;10.90;;;5.55;;
9260;SDS011;4667;42.726;23.252;2023-06-04T09:21:09;8.35;;;5.22;;
9260;SDS011;4667;42.726;23.252;2023-06-04T09:23:36;10.80;;;6.13;;
9260;SDS011;4667;42.726;23.252;2023-06-04T09:26:11;6.28;;;4.60;;
9260;SDS011;4667;42.726;23.252;2023-06-04T09:28:39;7.32;;;5.22;;
9260;SDS011;4667;42.726;23.252;2023-06-04T09:31:07;5.97;;;4.78;;
9260;SDS011;4667;42.726;23.252;2023-06-04T09:33:49;6.70;;;4.70;;
9260;SDS011;4667;42.726;23.252;2023-06-04T09:36:18;6.68;;;4.57;;
9260;SDS011;4667;42.726;23.252;2023-06-04T09:38:45;7.40;;;4.88;;
9260;SDS011;4667;42.726;23.252;2023-06-04T09:41:13;8.20;;;5.32;;
9260;SDS011;4667;42.726;23.252;2023-06-04T09:43:40;8.40;;;4.25;;
9260;SDS011;4667;42.726;23.252;2023-06-04T09:46:09;6.80;;;5.15;;
9260;SDS011;4667;42.726;23.252;2023-06-04T09:48:38;7.15;;;5.22;;
9260;SDS011;4667;42.726;23.252;2023-06-04T09:51:06;7.07;;;5.68;;
9260;SDS011;4667;42.726;23.252;2023-06-04T09:53:35;9.23;;;6.05;;
9260;SDS011;4667;42.726;23.252;2023-06-04T09:56:02;9.43;;;6.35;;
9260;SDS011;4667;42.726;23.252;2023-06-04T09:58:30;9.43;;;6.00;;
9260;SDS011;4667;42.726;23.252;2023-06-04T10:00:57;10.75;;;5.13;;
9260;SDS011;4667;42.726;23.252;2023-06-04T10:03:26;8.60;;;4.75;;
9260;SDS011;4667;42.726;23.252;2023-06-04T10:05:58;9.45;;;4.88;;
9260;SDS011;4667;42.726;23.252;2023-06-04T10:08:26;6.22;;;4.53;;
9260;SDS011;4667;42.726;23.252;2023-06-04T10:10:56;8.38;;;5.95;;
9260;SDS011;4667;42.726;23.252;2023-06-04T10:13:26;8.60;;;4.95;;
9260;SDS011;4667;42.726;23.252;2023-06-04T10:15:55;6.43;;;4.47;;
9260;SDS011;4667;42.726;23.252;2023-06-04T10:18:23;6.90;;;4.88;;
9260;SDS011;4667;42.726;23.252;2023-06-04T10:20:52;11.98;;;5.72;;
9260;SDS011;4667;42.726;23.252;2023-06-04T10:23:20;8.68;;;5.20;;
9260;SDS011;4667;42.726;23.252;2023-06-04T10:25:49;7.63;;;5.03;;
9260;SDS011;4667;42.726;23.252;2023-06-04T10:28:19;7.22;;;5.10;;
9260;SDS011;4667;42.726;23.252;2023-06-04T10:30:46;6.80;;;5.60;;
9260;SDS011;4667;42.726;23.252;2023-06-04T10:33:15;7.03;;;4.13;;
9260;SDS011;4667;42.726;23.252;2023-06-04T10:35:45;8.98;;;5.25;;
9260;SDS011;4667;42.726;23.252;2023-06-04T10:38:12;6.82;;;4.28;;
9260;SDS011;4667;42.726;23.252;2023-06-04T10:40:41;9.30;;;4.55;;
9260;SDS011;4667;42.726;23.252;2023-06-04T10:43:09;7.43;;;4.82;;
9260;SDS011;4667;42.726;23.252;2023-06-04T10:45:38;5.13;;;4.13;;
9260;SDS011;4667;42.726;23.252;2023-06-04T10:48:06;6.32;;;3.90;;
9260;SDS011;4667;42.726;23.252;2023-06-04T10:50:35;5.93;;;3.85;;
9260;SDS011;4667;42.726;23.252;2023-06-04T10:53:14;7.55;;;4.32;;
9260;SDS011;4667;42.726;23.252;2023-06-04T10:55:43;5.97;;;3.67;;
9260;SDS011;4667;42.726;23.252;2023-06-04T10:58:10;5.72;;;4.00;;
9260;SDS011;4667;42.726;23.252;2023-06-04T11:00:39;7.90;;;4.70;;
9260;SDS011;4667;42.726;23.252;2023-06-04T11:03:08;7.38;;;4.22;;
9260;SDS011;4667;42.726;23.252;2023-06-04T11:05:36;7.43;;;4.25;;
9260;SDS011;4667;42.726;23.252;2023-06-04T11:08:05;6.00;;;4.38;;
9260;SDS011;4667;42.726;23.252;2023-06-04T11:10:33;5.97;;;4.18;;
9260;SDS011;4667;42.726;23.252;2023-06-04T11:13:01;7.28;;;4.50;;
9260;SDS011;4667;42.726;23.252;2023-06-04T11:15:38;6.53;;;4.28;;
9260;SDS011;4667;42.726;23.252;2023-06-04T11:18:06;8.45;;;4.70;;
9260;SDS011;4667;42.726;23.252;2023-06-04T11:20:33;6.55;;;4.55;;
9260;SDS011;4667;42.726;23.252;2023-06-04T11:23:05;7.18;;;4.40;;
9260;SDS011;4667;42.726;23.252;2023-06-04T11:25:32;6.45;;;4.32;;
9260;SDS011;4667;42.726;23.252;2023-06-04T11:27:59;6.03;;;4.57;;
9260;SDS011;4667;42.726;23.252;2023-06-04T11:30:27;5.35;;;4.18;;
9260;SDS011;4667;42.726;23.252;2023-06-04T11:33:03;5.70;;;4.22;;
9260;SDS011;4667;42.726;23.252;2023-06-04T11:35:30;6.57;;;5.05;;
9260;SDS011;4667;42.726;23.252;2023-06-04T11:37:58;5.85;;;4.53;;
9260;SDS011;4667;42.726;23.252;2023-06-04T11:40:25;5.43;;;4.40;;
9260;SDS011;4667;42.726;23.252;2023-06-04T11:42:52;5.53;;;4.00;;
9260;SDS011;4667;42.726;23.252;2023-06-04T11:45:21;5.43;;;4.57;;
9260;SDS011;4667;42.726;23.252;2023-06-04T11:47:49;5.72;;;4.50;;
9260;SDS011;4667;42.726;23.252;2023-06-04T11:50:20;5.35;;;4.20;;
9260;SDS011;4667;42.726;23.252;2023-06-04T11:52:47;4.43;;;4.03;;
9260;SDS011;4667;42.726;23.252;2023-06-04T11:55:14;4.25;;;3.85;;
9260;SDS011;4667;42.726;23.252;2023-06-04T11:57:45;7.53;;;4.25;;
9260;SDS011;4667;42.726;23.252;2023-06-04T12:00:13;7.03;;;3.70;;
9260;SDS011;4667;42.726;23.252;2023-06-04T12:02:48;9.43;;;3.75;;
9260;SDS011;4667;42.726;23.252;2023-06-04T12:05:17;6.60;;;4.22;;
9260;SDS011;4667;42.726;23.252;2023-06-04T12:07:46;6.65;;;4.20;;
9260;SDS011;4667;42.726;23.252;2023-06-04T12:10:15;5.20;;;3.90;;
9260;SDS011;4667;42.726;23.252;2023-06-04T12:12:42;4.72;;;4.22;;
9260;SDS011;4667;42.726;23.252;2023-06-04T12:15:10;6.50;;;4.00;;
9260;SDS011;4667;42.726;23.252;2023-06-04T12:17:55;5.45;;;4.43;;
9260;SDS011;4667;42.726;23.252;2023-06-04T12:20:32;4.13;;;3.67;;
9260;SDS011;4667;42.726;23.252;2023-06-04T12:23:01;5.82;;;3.80;;
9260;SDS011;4667;42.726;23.252;2023-06-04T12:25:29;5.45;;;3.83;;
9260;SDS011;4667;42.726;23.252;2023-06-04T12:27:56;7.35;;;4.07;;
9260;SDS011;4667;42.726;23.252;2023-06-04T12:30:23;5.40;;;4.32;;
9260;SDS011;4667;42.726;23.252;2023-06-04T12:33:00;4.57;;;4.10;;
9260;SDS011;4667;42.726;23.252;2023-06-04T12:35:27;5.90;;;4.43;;
9260;SDS011;4667;42.726;23.252;2023-06-04T12:37:54;5.13;;;4.18;;
9260;SDS011;4667;42.726;23.252;2023-06-04T12:40:22;5.68;;;4.07;;
9260;SDS011;4667;42.726;23.252;2023-06-04T12:42:49;6.03;;;4.40;;
9260;SDS011;4667;42.726;23.252;2023-06-04T12:45:16;4.40;;;4.00;;
9260;SDS011;4667;42.726;23.252;2023-06-04T12:47:43;5.93;;;4.07;;
9260;SDS011;4667;42.726;23.252;2023-06-04T12:50:11;5.40;;;4.35;;
9260;SDS011;4667;42.726;23.252;2023-06-04T12:52:38;5.22;;;4.00;;
9260;SDS011;4667;42.726;23.252;2023-06-04T12:55:05;4.38;;;3.90;;
9260;SDS011;4667;42.726;23.252;2023-06-04T12:57:34;5.07;;;4.57;;
9260;SDS011;4667;42.726;23.252;2023-06-04T13:00:01;6.28;;;4.80;;
9260;SDS011;4667;42.726;23.252;2023-06-04T13:02:29;5.78;;;4.03;;
9260;SDS011;4667;42.726;23.252;2023-06-04T13:04:55;5.40;;;4.50;;
9260;SDS011;4667;42.726;23.252;2023-06-04T13:07:22;9.65;;;4.75;;
9260;SDS011;4667;42.726;23.252;2023-06-04T13:09:49;7.47;;;5.20;;
9260;SDS011;4667;42.726;23.252;2023-06-04T13:12:15;8.85;;;4.95;;
9260;SDS011;4667;42.726;23.252;2023-06-04T13:17:28;5.07;;;4.53;;
9260;SDS011;4667;42.726;23.252;2023-06-04T13:19:56;6.03;;;4.35;;
9260;SDS011;4667;42.726;23.252;2023-06-04T13:22:23;6.05;;;4.57;;
9260;SDS011;4667;42.726;23.252;2023-06-04T13:24:51;5.63;;;4.20;;
9260;SDS011;4667;42.726;23.252;2023-06-04T13:27:17;6.32;;;4.28;;
9260;SDS011;4667;42.726;23.252;2023-06-04T13:29:44;4.55;;;3.78;;
9260;SDS011;4667;42.726;23.252;2023-06-04T13:32:12;5.55;;;4.40;;
9260;SDS011;4667;42.726;23.252;2023-06-04T13:34:39;7.25;;;4.30;;
9260;SDS011;4667;42.726;23.252;2023-06-04T13:37:06;7.97;;;4.97;;
9260;SDS011;4667;42.726;23.252;2023-06-04T13:39:35;5.65;;;3.97;;
9260;SDS011;4667;42.726;23.252;2023-06-04T13:42:02;9.85;;;4.07;;
9260;SDS011;4667;42.726;23.252;2023-06-04T13:44:30;4.93;;;4.15;;
9260;SDS011;4667;42.726;23.252;2023-06-04T13:46:58;5.40;;;4.10;;
9260;SDS011;4667;42.726;23.252;2023-06-04T13:49:27;4.57;;;3.92;;
9260;SDS011;4667;42.726;23.252;2023-06-04T13:51:54;6.03;;;4.55;;
9260;SDS011;4667;42.726;23.252;2023-06-04T13:54:22;4.53;;;3.65;;
9260;SDS011;4667;42.726;23.252;2023-06-04T13:56:49;4.15;;;3.75;;
9260;SDS011;4667;42.726;23.252;2023-06-04T13:59:16;6.65;;;4.47;;
9260;SDS011;4667;42.726;23.252;2023-06-04T14:01:43;4.13;;;3.65;;
9260;SDS011;4667;42.726;23.252;2023-06-04T14:04:09;7.40;;;4.40;;
9260;SDS011;4667;42.726;23.252;2023-06-04T14:06:38;5.53;;;3.75;;
9260;SDS011;4667;42.726;23.252;2023-06-04T14:09:04;7.10;;;4.30;;
9260;SDS011;4667;42.726;23.252;2023-06-04T14:11:34;6.45;;;4.80;;
9260;SDS011;4667;42.726;23.252;2023-06-04T14:14:01;7.10;;;4.32;;
9260;SDS011;4667;42.726;23.252;2023-06-04T14:16:27;6.15;;;5.20;;
9260;SDS011;4667;42.726;23.252;2023-06-04T14:18:54;6.32;;;4.72;;
9260;SDS011;4667;42.726;23.252;2023-06-04T14:21:21;7.60;;;5.32;;
9260;SDS011;4667;42.726;23.252;2023-06-04T14:23:49;5.70;;;4.63;;
9260;SDS011;4667;42.726;23.252;2023-06-04T14:26:16;6.50;;;4.80;;
9260;SDS011;4667;42.726;23.252;2023-06-04T14:28:44;5.97;;;4.72;;
9260;SDS011;4667;42.726;23.252;2023-06-04T14:31:10;7.07;;;4.78;;
9260;SDS011;4667;42.726;23.252;2023-06-04T14:33:37;4.53;;;4.07;;
9260;SDS011;4667;42.726;23.252;2023-06-04T14:36:04;7.28;;;4.32;;
9260;SDS011;4667;42.726;23.252;2023-06-04T14:38:30;6.63;;;4.18;;
9260;SDS011;4667;42.726;23.252;2023-06-04T14:40:58;5.45;;;4.35;;
9260;SDS011;4667;42.726;23.252;2023-06-04T14:43:25;5.07;;;4.38;;
9260;SDS011;4667;42.726;23.252;2023-06-04T14:45:52;7.07;;;4.57;;
9260;SDS011;4667;42.726;23.252;2023-06-04T14:48:19;6.43;;;4.70;;
9260;SDS011;4667;42.726;23.252;2023-06-04T14:50:46;4.93;;;3.95;;
9260;SDS011;4667;42.726;23.252;2023-06-04T14:53:13;5.32;;;4.35;;
9260;SDS011;4667;42.726;23.252;2023-06-04T14:55:40;6.50;;;4.63;;
9260;SDS011;4667;42.726;23.252;2023-06-04T14:58:09;7.07;;;5.38;;
9260;SDS011;4667;42.726;23.252;2023-06-04T15:00:36;7.53;;;5.80;;
9260;SDS011;4667;42.726;23.252;2023-06-04T15:03:03;10.35;;;5.93;;
9260;SDS011;4667;42.726;23.252;2023-06-04T15:05:34;8.65;;;5.78;;
9260;SDS011;4667;42.726;23.252;2023-06-04T15:08:02;9.43;;;6.50;;
9260;SDS011;4667;42.726;23.252;2023-06-04T15:10:29;9.63;;;7.07;;
9260;SDS011;4667;42.726;23.252;2023-06-04T15:12:58;8.43;;;6.07;;
9260;SDS011;4667;42.726;23.252;2023-06-04T15:15:27;9.57;;;6.47;;
9260;SDS011;4667;42.726;23.252;2023-06-04T15:17:53;9.93;;;6.78;;
9260;SDS011;4667;42.726;23.252;2023-06-04T15:20:20;11.00;;;6.95;;
9260;SDS011;4667;42.726;23.252;2023-06-04T15:22:50;21.20;;;8.07;;
9260;SDS011;4667;42.726;23.252;2023-06-04T15:25:16;9.05;;;6.93;;
9260;SDS011;4667;42.726;23.252;2023-06-04T15:27:43;13.65;;;8.95;;
9260;SDS011;4667;42.726;23.252;2023-06-04T15:30:10;13.25;;;7.97;;
9260;SDS011;4667;42.726;23.252;2023-06-04T15:32:38;8.70;;;7.20;;
9260;SDS011;4667;42.726;23.252;2023-06-04T15:35:06;10.68;;;8.35;;
9260;SDS011;4667;42.726;23.252;2023-06-04T15:40:11;12.85;;;7.75;;
9260;SDS011;4667;42.726;23.252;2023-06-04T15:42:38;11.93;;;8.57;;
9260;SDS011;4667;42.726;23.252;2023-06-04T15:45:08;17.45;;;9.45;;
9260;SDS011;4667;42.726;23.252;2023-06-04T15:47:40;12.32;;;9.00;;
9260;SDS011;4667;42.726;23.252;2023-06-04T15:50:07;11.85;;;8.68;;
9260;SDS011;4667;42.726;23.252;2023-06-04T15:52:34;11.75;;;8.65;;
9260;SDS011;4667;42.726;23.252;2023-06-04T15:55:01;9.70;;;7.32;;
9260;SDS011;4667;42.726;23.252;2023-06-04T15:57:27;8.18;;;6.47;;
9260;SDS011;4667;42.726;23.252;2023-06-04T15:59:54;10.18;;;7.18;;
9260;SDS011;4667;42.726;23.252;2023-06-04T16:02:21;8.80;;;7.38;;
9260;SDS011;4667;42.726;23.252;2023-06-04T16:04:49;9.52;;;6.90;;
9260;SDS011;4667;42.726;23.252;2023-06-04T16:07:16;10.13;;;6.95;;
9260;SDS011;4667;42.726;23.252;2023-06-04T16:09:43;8.32;;;5.15;;
9260;SDS011;4667;42.726;23.252;2023-06-04T16:12:10;5.35;;;3.60;;
9260;SDS011;4667;42.726;23.252;2023-06-04T16:14:36;6.78;;;3.85;;
9260;SDS011;4667;42.726;23.252;2023-06-04T16:17:03;5.90;;;3.67;;
9260;SDS011;4667;42.726;23.252;2023-06-04T16:19:30;4.88;;;3.78;;
9260;SDS011;4667;42.726;23.252;2023-06-04T16:21:59;5.37;;;4.37;;
9260;SDS011;4667;42.726;23.252;2023-06-04T16:24:26;5.18;;;4.05;;
9260;SDS011;4667;42.726;23.252;2023-06-04T16:26:53;6.50;;;3.60;;
9260;SDS011;4667;42.726;23.252;2023-06-04T16:29:20;6.17;;;4.00;;
9260;SDS011;4667;42.726;23.252;2023-06-04T16:31:47;6.97;;;3.53;;
9260;SDS011;4667;42.726;23.252;2023-06-04T16:34:18;4.20;;;3.40;;
9260;SDS011;4667;42.726;23.252;2023-06-04T16:36:45;4.25;;;3.08;;
9260;SDS011;4667;42.726;23.252;2023-06-04T16:39:13;3.87;;;3.07;;
9260;SDS011;4667;42.726;23.252;2023-06-04T16:41:41;5.17;;;3.20;;
9260;SDS011;4667;42.726;23.252;2023-06-04T16:44:09;5.00;;;3.70;;
9260;SDS011;4667;42.726;23.252;2023-06-04T16:46:36;7.13;;;4.10;;
9260;SDS011;4667;42.726;23.252;2023-06-04T16:49:06;8.03;;;4.20;;
9260;SDS011;4667;42.726;23.252;2023-06-04T16:51:32;6.20;;;3.50;;
9260;SDS011;4667;42.726;23.252;2023-06-04T16:54:04;6.27;;;4.00;;
9260;SDS011;4667;42.726;23.252;2023-06-04T16:56:38;5.60;;;3.80;;
9260;SDS011;4667;42.726;23.252;2023-06-04T16:59:06;7.87;;;4.17;;
9260;SDS011;4667;42.726;23.252;2023-06-04T17:01:33;6.25;;;3.85;;
9260;SDS011;4667;42.726;23.252;2023-06-04T17:04:02;7.67;;;4.10;;
9260;SDS011;4667;42.726;23.252;2023-06-04T17:06:29;4.80;;;3.30;;
9260;SDS011;4667;42.726;23.252;2023-06-04T17:08:56;4.10;;;3.13;;
9260;SDS011;4667;42.726;23.252;2023-06-04T17:11:23;4.53;;;3.27;;
9260;SDS011;4667;42.726;23.252;2023-06-04T17:13:51;5.83;;;3.67;;
9260;SDS011;4667;42.726;23.252;2023-06-04T17:16:18;5.30;;;3.27;;
9260;SDS011;4667;42.726;23.252;2023-06-04T17:18:44;4.43;;;3.40;;
9260;SDS011;4667;42.726;23.252;2023-06-04T17:21:11;4.40;;;3.83;;
9260;SDS011;4667;42.726;23.252;2023-06-04T17:23:39;5.40;;;3.10;;
9260;SDS011;4667;42.726;23.252;2023-06-04T17:26:09;7.10;;;3.65;;
9260;SDS011;4667;42.726;23.252;2023-06-04T17:28:39;4.50;;;3.40;;
9260;SDS011;4667;42.726;23.252;2023-06-04T17:31:08;7.20;;;3.70;;
9260;SDS011;4667;42.726;23.252;2023-06-04T17:33:42;3.97;;;3.50;;
9260;SDS011;4667;42.726;23.252;2023-06-04T17:36:08;3.87;;;3.23;;
9260;SDS011;4667;42.726;23.252;2023-06-04T17:38:35;5.03;;;3.77;;
9260;SDS011;4667;42.726;23.252;2023-06-04T17:41:02;4.47;;;3.33;;
9260;SDS011;4667;42.726;23.252;2023-06-04T17:43:29;5.40;;;3.63;;
9260;SDS011;4667;42.726;23.252;2023-06-04T17:45:56;4.77;;;3.60;;
9260;SDS011;4667;42.726;23.252;2023-06-04T17:48:24;4.93;;;3.77;;
9260;SDS011;4667;42.726;23.252;2023-06-04T17:50:54;5.77;;;3.70;;
9260;SDS011;4667;42.726;23.252;2023-06-04T17:53:20;4.07;;;3.50;;
9260;SDS011;4667;42.726;23.252;2023-06-04T17:55:48;8.93;;;4.07;;
9260;SDS011;4667;42.726;23.252;2023-06-04T17:58:16;4.57;;;3.30;;
9260;SDS011;4667;42.726;23.252;2023-06-04T18:00:43;3.90;;;3.33;;
9260;SDS011;4667;42.726;23.252;2023-06-04T18:03:10;4.77;;;3.73;;
9260;SDS011;4667;42.726;23.252;2023-06-04T18:05:39;5.40;;;3.90;;
9260;SDS011;4667;42.726;23.252;2023-06-04T18:08:06;4.57;;;3.40;;
9260;SDS011;4667;42.726;23.252;2023-06-04T18:10:33;7.07;;;3.93;;
9260;SDS011;4667;42.726;23.252;2023-06-04T18:13:00;11.30;;;4.03;;
9260;SDS011;4667;42.726;23.252;2023-06-04T18:15:27;6.30;;;4.10;;
9260;SDS011;4667;42.726;23.252;2023-06-04T18:17:54;6.33;;;4.30;;
9260;SDS011;4667;42.726;23.252;2023-06-04T18:20:21;4.90;;;4.00;;
9260;SDS011;4667;42.726;23.252;2023-06-04T18:22:51;6.20;;;4.40;;
9260;SDS011;4667;42.726;23.252;2023-06-04T18:25:21;5.80;;;3.97;;
9260;SDS011;4667;42.726;23.252;2023-06-04T18:27:48;5.03;;;3.67;;
9260;SDS011;4667;42.726;23.252;2023-06-04T18:30:15;5.10;;;4.00;;
9260;SDS011;4667;42.726;23.252;2023-06-04T18:32:41;4.97;;;4.17;;
9260;SDS011;4667;42.726;23.252;2023-06-04T18:35:08;6.70;;;4.27;;
9260;SDS011;4667;42.726;23.252;2023-06-04T18:37:35;5.43;;;3.97;;
9260;SDS011;4667;42.726;23.252;2023-06-04T18:40:04;8.63;;;5.20;;
9260;SDS011;4667;42.726;23.252;2023-06-04T18:42:32;8.23;;;5.33;;
9260;SDS011;4667;42.726;23.252;2023-06-04T18:44:59;5.63;;;4.90;;
9260;SDS011;4667;42.726;23.252;2023-06-04T18:47:29;5.43;;;4.43;;
9260;SDS011;4667;42.726;23.252;2023-06-04T18:49:56;6.40;;;4.57;;
9260;SDS011;4667;42.726;23.252;2023-06-04T18:52:23;6.73;;;4.47;;
9260;SDS011;4667;42.726;23.252;2023-06-04T18:54:49;6.03;;;4.67;;
9260;SDS011;4667;42.726;23.252;2023-06-04T18:57:18;7.40;;;5.03;;
9260;SDS011;4667;42.726;23.252;2023-06-04T18:59:44;7.60;;;5.20;;
9260;SDS011;4667;42.726;23.252;2023-06-04T19:02:11;8.27;;;5.63;;
9260;SDS011;4667;42.726;23.252;2023-06-04T19:04:39;6.40;;;4.90;;
9260;SDS011;4667;42.726;23.252;2023-06-04T19:07:05;6.47;;;5.17;;
9260;SDS011;4667;42.726;23.252;2023-06-04T19:09:32;7.63;;;5.17;;
9260;SDS011;4667;42.726;23.252;2023-06-04T19:11:59;7.57;;;5.40;;
9260;SDS011;4667;42.726;23.252;2023-06-04T19:14:27;9.23;;;5.93;;
9260;SDS011;4667;42.726;23.252;2023-06-04T19:16:54;7.67;;;5.27;;
9260;SDS011;4667;42.726;23.252;2023-06-04T19:19:20;6.83;;;4.67;;
9260;SDS011;4667;42.726;23.252;2023-06-04T19:21:47;9.67;;;5.77;;
9260;SDS011;4667;42.726;23.252;2023-06-04T19:24:16;10.07;;;5.20;;
9260;SDS011;4667;42.726;23.252;2023-06-04T19:26:45;7.33;;;5.50;;
9260;SDS011;4667;42.726;23.252;2023-06-04T19:29:12;7.73;;;5.40;;
9260;SDS011;4667;42.726;23.252;2023-06-04T19:31:40;8.57;;;5.50;;
9260;SDS011;4667;42.726;23.252;2023-06-04T19:34:07;7.17;;;5.30;;
9260;SDS011;4667;42.726;23.252;2023-06-04T19:36:33;7.67;;;4.90;;
9260;SDS011;4667;42.726;23.252;2023-06-04T19:39:01;4.77;;;4.13;;
9260;SDS011;4667;42.726;23.252;2023-06-04T19:41:28;6.50;;;4.77;;
9260;SDS011;4667;42.726;23.252;2023-06-04T19:43:56;6.93;;;5.27;;
9260;SDS011;4667;42.726;23.252;2023-06-04T19:46:23;7.63;;;4.20;;
9260;SDS011;4667;42.726;23.252;2023-06-04T19:48:51;8.70;;;5.40;;
9260;SDS011;4667;42.726;23.252;2023-06-04T19:51:19;9.67;;;5.10;;
9260;SDS011;4667;42.726;23.252;2023-06-04T19:53:47;8.93;;;5.03;;
9260;SDS011;4667;42.726;23.252;2023-06-04T19:56:14;6.10;;;4.80;;
9260;SDS011;4667;42.726;23.252;2023-06-04T19:58:44;5.87;;;4.43;;
9260;SDS011;4667;42.726;23.252;2023-06-04T20:01:12;6.93;;;4.47;;
9260;SDS011;4667;42.726;23.252;2023-06-04T20:03:39;12.17;;;5.93;;
9260;SDS011;4667;42.726;23.252;2023-06-04T20:06:08;5.83;;;4.50;;
9260;SDS011;4667;42.726;23.252;2023-06-04T20:08:35;9.00;;;4.80;;
9260;SDS011;4667;42.726;23.252;2023-06-04T20:11:02;6.90;;;5.20;;
9260;SDS011;4667;42.726;23.252;2023-06-04T20:13:28;9.13;;;5.90;;
9260;SDS011;4667;42.726;23.252;2023-06-04T20:15:55;10.57;;;5.40;;
9260;SDS011;4667;42.726;23.252;2023-06-04T20:18:22;12.03;;;5.20;;
9260;SDS011;4667;42.726;23.252;2023-06-04T20:20:50;10.07;;;5.33;;
9260;SDS011;4667;42.726;23.252;2023-06-04T20:23:18;7.93;;;5.00;;
9260;SDS011;4667;42.726;23.252;2023-06-04T20:25:45;7.80;;;4.83;;
9260;SDS011;4667;42.726;23.252;2023-06-04T20:28:12;8.13;;;5.37;;
9260;SDS011;4667;42.726;23.252;2023-06-04T20:30:39;8.30;;;5.60;;
9260;SDS011;4667;42.726;23.252;2023-06-04T20:33:06;10.23;;;5.53;;
9260;SDS011;4667;42.726;23.252;2023-06-04T20:35:33;10.37;;;5.50;;
9260;SDS011;4667;42.726;23.252;2023-06-04T20:38:00;8.27;;;5.83;;
9260;SDS011;4667;42.726;23.252;2023-06-04T20:40:29;9.23;;;6.80;;
9260;SDS011;4667;42.726;23.252;2023-06-04T20:42:56;7.20;;;5.60;;
9260;SDS011;4667;42.726;23.252;2023-06-04T20:45:23;9.40;;;6.00;;
9260;SDS011;4667;42.726;23.252;2023-06-04T20:47:50;7.90;;;5.50;;
9260;SDS011;4667;42.726;23.252;2023-06-04T20:50:17;7.97;;;5.67;;
9260;SDS011;4667;42.726;23.252;2023-06-04T20:52:44;8.77;;;6.20;;
9260;SDS011;4667;42.726;23.252;2023-06-04T20:55:11;10.27;;;5.07;;
9260;SDS011;4667;42.726;23.252;2023-06-04T20:57:43;6.80;;;5.37;;
9260;SDS011;4667;42.726;23.252;2023-06-04T21:00:11;8.20;;;5.53;;
9260;SDS011;4667;42.726;23.252;2023-06-04T21:02:38;8.53;;;5.70;;
9260;SDS011;4667;42.726;23.252;2023-06-04T21:05:06;8.07;;;5.70;;
9260;SDS011;4667;42.726;23.252;2023-06-04T21:07:34;5.83;;;5.23;;
9260;SDS011;4667;42.726;23.252;2023-06-04T21:10:00;8.93;;;6.10;;
9260;SDS011;4667;42.726;23.252;2023-06-04T21:12:28;8.80;;;6.17;;
9260;SDS011;4667;42.726;23.252;2023-06-04T21:14:56;10.83;;;7.67;;
9260;SDS011;4667;42.726;23.252;2023-06-04T21:17:23;10.33;;;7.67;;
9260;SDS011;4667;42.726;23.252;2023-06-04T21:19:50;12.10;;;8.40;;
9260;SDS011;4667;42.726;23.252;2023-06-04T21:22:17;11.33;;;8.27;;
9260;SDS011;4667;42.726;23.252;2023-06-04T21:24:44;10.43;;;7.33;;
9260;SDS011;4667;42.726;23.252;2023-06-04T21:27:11;10.47;;;7.60;;
9260;SDS011;4667;42.726;23.252;2023-06-04T21:29:39;8.97;;;6.87;;
9260;SDS011;4667;42.726;23.252;2023-06-04T21:32:07;10.07;;;7.83;;
9260;SDS011;4667;42.726;23.252;2023-06-04T21:34:34;9.50;;;7.17;;
9260;SDS011;4667;42.726;23.252;2023-06-04T21:37:01;7.97;;;7.10;;
9260;SDS011;4667;42.726;23.252;2023-06-04T21:39:28;10.17;;;6.47;;
9260;SDS011;4667;42.726;23.252;2023-06-04T21:41:55;9.63;;;6.67;;
9260;SDS011;4667;42.726;23.252;2023-06-04T21:44:22;11.43;;;7.53;;
9260;SDS011;4667;42.726;23.252;2023-06-04T21:46:49;10.80;;;7.50;;
9260;SDS011;4667;42.726;23.252;2023-06-04T21:49:17;9.33;;;7.30;;
9260;SDS011;4667;42.726;23.252;2023-06-04T21:51:44;8.17;;;6.77;;
9260;SDS011;4667;42.726;23.252;2023-06-04T21:54:11;8.47;;;7.23;;
9260;SDS011;4667;42.726;23.252;2023-06-04T21:56:38;9.10;;;6.97;;
9260;SDS011;4667;42.726;23.252;2023-06-04T21:59:05;11.90;;;7.93;;
9260;SDS011;4667;42.726;23.252;2023-06-04T22:01:32;11.03;;;8.47;;
9260;SDS011;4667;42.726;23.252;2023-06-04T22:03:59;10.30;;;8.23;;
9260;SDS011;4667;42.726;23.252;2023-06-04T22:06:28;8.93;;;7.13;;
9260;SDS011;4667;42.726;23.252;2023-06-04T22:08:55;10.73;;;8.03;;
9260;SDS011;4667;42.726;23.252;2023-06-04T22:11:22;10.43;;;8.27;;
9260;SDS011;4667;42.726;23.252;2023-06-04T22:13:50;11.37;;;9.00;;
9260;SDS011;4667;42.726;23.252;2023-06-04T22:16:17;12.33;;;9.10;;
9260;SDS011;4667;42.726;23.252;2023-06-04T22:18:44;12.83;;;8.07;;
9260;SDS011;4667;42.726;23.252;2023-06-04T22:21:11;13.03;;;8.83;;
9260;SDS011;4667;42.726;23.252;2023-06-04T22:23:40;13.40;;;8.87;;
9260;SDS011;4667;42.726;23.252;2023-06-04T22:26:09;10.77;;;8.53;;
9260;SDS011;4667;42.726;23.252;2023-06-04T22:28:35;13.37;;;7.53;;
9260;SDS011;4667;42.726;23.252;2023-06-04T22:31:02;10.97;;;7.80;;
9260;SDS011;4667;42.726;23.252;2023-06-04T22:33:29;10.63;;;8.10;;